Toyama Airport
RJNT : now visible

Airfield :











YOU CAN JOIN US ON...

 
LOGIN :

Register | Disclaimer

   EN    FR    IT 

 









Legend :    VFR   Marginal VFR   IFR   Intensive IFR   Very Intensive IFR
Visi :
Ceiling :
>= 8 km
>= 3000ft
5 to 8 km
1000 to 3000 ft
1500m to 5 km
500 to 1000 ft
800 to 1500m
200 to 500 ft
< 800m
< 200 ft
Symbols :   Thunderstorms  Fog  Heavy snow  Heavy precipitations  Wind > 20 kt






- Airport Elevation : 95 ft
- IATA code : TOY


RJNT - Toyama

CURRENT METAR :
  • 190400Z 19003KT 120V240 9999 FEW030 BKN070 08/M03 Q1026

EXPIRED METARs :
  • 190300Z 18003KT 090V210 9999 FEW030 BKN070 07/M05 Q1027
  • 190200Z 00000KT 9999 FEW030 SCT060 BKN070 06/M02 Q1028

TAF TAF RJNT
Valid from the 19 at 00:00 until the 20 at 06:00 UTC


182305Z 1900/2006 22005KT 9999 FEW030 SCT050
BECMG 1921/2000 01005KT
TEMPO 1921/2003 4000 -SHRA BR FEW005 BKN008



MET'MAP, your aeronautical weather chart ! - Copyright ORBIFLY December 2007 - Disclaimer

ORBIFLY MET'MAP TEAM :

Programming & Development : Alexandra Zaïnal
Concept & original design : Baudouin d'Aumeries
Assistance for programming : Marc-Olivier Méhu
Technical & hardware support : Manuel Goepfert

Contact : metmap@orbifly.com




SOURCES & CREDITS :

   NOAA       Earth
Advisory